Time;durP1;ratioP1;P1;durP2;ratioP2;P2;SDS_P1;SDS_P2;PMS_P1;PMS_P2;Temp;Humidity;BMP_temperature;BMP_pressure;BME280_temperature;BME280_humidity;BME280_pressure;Samples;Min_cycle;Max_cycle;Signal;HPM_P1;HPM_P2
2022/05/16 00:02:04;;;;;;;9.25;3.67;;;17.60;86.30;;;;;;4991992;28;20026;-68
2022/05/16 00:04:29;;;;;;;9.98;3.40;;;17.60;86.40;;;;;;4993184;28;20402;-69
2022/05/16 00:06:55;;;;;;;8.10;2.90;;;17.60;86.30;;;;;;4991955;28;20061;-68
2022/05/16 00:09:21;;;;;;;10.27;3.10;;;17.60;86.20;;;;;;4991993;28;20027;-68
2022/05/16 00:11:46;;;;;;;9.90;3.88;;;17.50;86.10;;;;;;4992461;28;20027;-68
2022/05/16 00:14:12;;;;;;;7.47;3.03;;;17.60;86.10;;;;;;4992897;28;20030;-68
2022/05/16 00:16:41;;;;;;;8.68;3.15;;;17.60;86.10;;;;;;4991407;28;20030;-68
2022/05/16 00:19:07;;;;;;;11.52;3.22;;;17.50;86.10;;;;;;4992596;28;20077;-68
2022/05/16 00:21:33;;;;;;;8.73;2.47;;;17.50;86.10;;;;;;4992419;28;20101;-68
2022/05/16 00:23:59;;;;;;;9.20;3.40;;;17.50;86.00;;;;;;4992155;28;20034;-68
2022/05/16 00:26:25;;;;;;;8.23;3.50;;;17.50;86.00;;;;;;4992358;28;20042;-68
2022/05/16 00:28:51;;;;;;;9.57;3.58;;;17.50;86.00;;;;;;4993397;28;20115;-68
2022/05/16 00:31:19;;;;;;;5.55;3.05;;;17.50;85.90;;;;;;4986221;28;20062;-68
2022/05/16 00:33:45;;;;;;;6.07;3.22;;;17.50;85.80;;;;;;4992253;28;20043;-68
2022/05/16 00:36:11;;;;;;;16.05;3.45;;;17.40;85.60;;;;;;4992513;28;20553;-68
2022/05/16 00:38:40;;;;;;;9.23;2.90;;;17.40;85.40;;;;;;4992129;28;20031;-68
2022/05/16 00:41:06;;;;;;;7.55;2.95;;;17.50;85.30;;;;;;4992999;28;20053;-68
2022/05/16 00:43:58;;;;;;;8.40;3.00;;;17.40;85.10;;;;;;4992094;28;20037;-68
2022/05/16 00:46:27;;;;;;;8.95;2.53;;;17.40;84.90;;;;;;4992703;28;20108;-68
2022/05/16 00:48:53;;;;;;;7.80;2.33;;;17.40;84.60;;;;;;4992112;28;20031;-68
2022/05/16 00:51:32;;;;;;;5.10;2.03;;;17.40;84.40;;;;;;4992235;28;20375;-69
2022/05/16 00:54:16;;;;;;;8.27;2.60;;;17.40;84.30;;;;;;4993087;28;20425;-68
2022/05/16 00:56:45;;;;;;;8.43;2.42;;;17.40;84.30;;;;;;4996999;28;20081;-68
2022/05/16 00:59:14;;;;;;;5.60;2.55;;;17.30;84.10;;;;;;4994933;28;20065;-68
2022/05/16 01:07:10;;;;;;;6.88;2.20;;;17.30;84.00;;;;;;4984121;28;20042;-68
2022/05/16 01:09:36;;;;;;;4.38;2.08;;;17.30;83.90;;;;;;4995173;28;20038;-68
2022/05/16 01:12:02;;;;;;;7.68;2.45;;;17.30;83.90;;;;;;4996253;28;20050;-69
2022/05/16 01:14:52;;;;;;;9.10;2.22;;;17.30;83.80;;;;;;4995717;28;20034;-68
2022/05/16 01:17:19;;;;;;;7.53;2.50;;;17.20;83.70;;;;;;4995484;28;20552;-69
2022/05/16 01:19:45;;;;;;;7.97;1.90;;;17.20;83.60;;;;;;4994631;28;20109;-68
2022/05/16 01:22:28;;;;;;;4.18;2.10;;;17.20;83.50;;;;;;4995702;28;20466;-68
2022/05/16 01:25:08;;;;;;;6.93;2.40;;;17.20;83.50;;;;;;4994821;28;20042;-69
2022/05/16 01:27:51;;;;;;;5.05;2.03;;;17.20;83.40;;;;;;4993897;28;20046;-68
2022/05/16 01:30:23;;;;;;;4.90;2.10;;;17.20;83.50;;;;;;4993642;28;20113;-69
2022/05/16 01:32:49;;;;;;;5.68;2.15;;;17.20;83.40;;;;;;4990786;28;20073;-69
2022/05/16 01:35:27;;;;;;;8.65;2.30;;;17.20;83.20;;;;;;4994659;28;20038;-68
2022/05/16 01:40:37;;;;;;;7.43;2.10;;;17.10;83.00;;;;;;4992443;28;20092;-68
2022/05/16 01:43:05;;;;;;;8.25;2.20;;;17.10;82.90;;;;;;4992915;28;20577;-68
2022/05/16 01:45:31;;;;;;;4.80;1.98;;;17.10;82.70;;;;;;4990084;28;20043;-68
2022/05/16 01:47:57;;;;;;;5.63;2.08;;;17.10;82.70;;;;;;4992581;28;20030;-68
2022/05/16 01:50:22;;;;;;;10.65;2.22;;;17.10;82.70;;;;;;4994137;28;20351;-68
2022/05/16 01:52:50;;;;;;;5.60;1.80;;;17.10;82.50;;;;;;4994076;28;20548;-68
2022/05/16 01:55:17;;;;;;;4.07;1.75;;;17.10;82.40;;;;;;4993069;28;20113;-68
2022/05/16 01:57:42;;;;;;;6.05;1.60;;;17.10;82.40;;;;;;4993752;28;20030;-68
2022/05/16 02:00:11;;;;;;;5.60;1.83;;;17.10;82.30;;;;;;4993221;28;20034;-68
2022/05/16 02:02:41;;;;;;;3.17;1.60;;;17.10;82.30;;;;;;4991014;28;20140;-68
2022/05/16 02:05:07;;;;;;;5.00;2.00;;;17.10;82.20;;;;;;4990129;28;20502;-68
2022/05/16 02:07:36;;;;;;;4.50;1.92;;;17.10;82.30;;;;;;4992122;28;20593;-68
2022/05/16 02:10:02;;;;;;;5.28;1.63;;;17.00;82.20;;;;;;4992108;28;20030;-68
2022/05/16 02:12:28;;;;;;;4.13;1.90;;;17.00;82.30;;;;;;4990076;28;20038;-69
2022/05/16 02:15:00;;;;;;;3.53;1.73;;;17.00;82.30;;;;;;4990740;28;20042;-69
2022/05/16 02:17:26;;;;;;;3.72;1.73;;;17.00;82.30;;;;;;4988188;28;20066;-70
2022/05/16 02:19:51;;;;;;;6.88;1.90;;;17.00;82.30;;;;;;4992373;28;20039;-68
2022/05/16 02:25:05;;;;;;;3.83;1.60;;;17.00;82.30;;;;;;4991856;28;20042;-68
2022/05/16 02:27:32;;;;;;;5.85;2.08;;;17.00;82.40;;;;;;4992132;28;20042;-69
2022/05/16 02:29:58;;;;;;;2.17;1.73;;;16.90;82.30;;;;;;4991233;28;20492;-69
2022/05/16 02:32:23;;;;;;;5.22;1.75;;;16.90;82.50;;;;;;4992148;28;20121;-69
2022/05/16 02:34:50;;;;;;;4.95;2.22;;;16.90;82.40;;;;;;4991288;28;20042;-68
2022/05/16 02:37:16;;;;;;;13.73;1.80;;;16.90;82.40;;;;;;4991196;28;20379;-69
2022/05/16 02:39:44;;;;;;;7.53;1.88;;;16.90;82.40;;;;;;4991747;28;20537;-68
2022/05/16 02:42:11;;;;;;;5.70;1.95;;;16.90;82.50;;;;;;4991945;28;20078;-69
2022/05/16 02:44:38;;;;;;;2.83;1.60;;;16.90;82.50;;;;;;4991114;28;20386;-69
2022/05/16 02:47:05;;;;;;;8.70;1.90;;;16.80;82.60;;;;;;4991205;28;20478;-69
2022/05/16 02:49:34;;;;;;;5.13;2.00;;;16.80;82.50;;;;;;4992020;28;20371;-69
2022/05/16 02:51:59;;;;;;;4.03;1.80;;;16.80;82.50;;;;;;4990298;28;20133;-69
2022/05/16 02:54:28;;;;;;;2.78;1.65;;;16.80;82.50;;;;;;4991528;28;20359;-68
2022/05/16 02:56:53;;;;;;;4.53;1.60;;;16.80;82.40;;;;;;4991264;28;20027;-69
2022/05/16 02:59:19;;;;;;;10.35;1.80;;;16.80;82.30;;;;;;4992400;28;20034;-68
2022/05/16 03:01:45;;;;;;;8.13;2.00;;;16.70;82.20;;;;;;4992534;28;20038;-69
2022/05/16 03:04:10;;;;;;;5.00;2.05;;;16.70;82.10;;;;;;4991880;28;20033;-69
2022/05/16 03:06:36;;;;;;;4.45;1.55;;;16.70;82.10;;;;;;4992431;28;20053;-69
2022/05/16 03:09:02;;;;;;;6.70;2.00;;;16.70;82.00;;;;;;4992527;28;20607;-69
2022/05/16 03:11:28;;;;;;;5.40;2.05;;;16.70;82.00;;;;;;4991680;28;20041;-69
2022/05/16 03:13:54;;;;;;;7.78;1.92;;;16.70;82.00;;;;;;4992475;28;20026;-68
2022/05/16 03:16:20;;;;;;;5.72;2.40;;;16.60;81.90;;;;;;4991886;28;20042;-69
2022/05/16 03:18:45;;;;;;;4.00;1.55;;;16.60;81.90;;;;;;4978800;28;20549;-68
2022/05/16 03:21:11;;;;;;;3.25;1.83;;;16.70;81.90;;;;;;4991821;28;20031;-69
2022/05/16 03:23:37;;;;;;;6.82;1.92;;;16.60;81.70;;;;;;4992434;28;20038;-69
2022/05/16 03:26:04;;;;;;;6.53;1.60;;;16.60;81.60;;;;;;4991079;28;20046;-68
2022/05/16 03:28:29;;;;;;;7.93;1.52;;;16.60;81.70;;;;;;4992464;28;20114;-68
2022/05/16 03:30:57;;;;;;;5.88;1.60;;;16.60;81.50;;;;;;4992042;28;20550;-70
2022/05/16 03:33:24;;;;;;;6.13;2.00;;;16.60;81.70;;;;;;4991224;28;20057;-69
2022/05/16 03:35:55;;;;;;;4.07;1.45;;;16.60;81.70;;;;;;4992034;28;20485;-69
2022/05/16 03:41:11;;;;;;;3.28;1.73;;;16.60;82.20;;;;;;4991608;28;20050;-69
2022/05/16 03:43:38;;;;;;;4.20;1.40;;;16.60;82.40;;;;;;4991914;28;20109;-69
2022/05/16 03:46:07;;;;;;;2.40;1.33;;;16.60;82.30;;;;;;4991720;28;20061;-69
2022/05/16 03:48:35;;;;;;;2.22;1.20;;;16.60;82.60;;;;;;4990442;28;20068;-69
2022/05/16 03:51:02;;;;;;;4.30;1.70;;;16.60;83.10;;;;;;4991651;28;20536;-68
2022/05/16 03:53:28;;;;;;;6.68;1.67;;;16.60;83.00;;;;;;4990966;28;20026;-68
2022/05/16 03:55:54;;;;;;;4.60;1.85;;;16.60;83.50;;;;;;4991934;28;20026;-68
2022/05/16 03:58:19;;;;;;;6.25;1.52;;;16.50;83.10;;;;;;4991985;28;20049;-69
2022/05/16 04:00:45;;;;;;;6.70;1.80;;;16.50;83.40;;;;;;4990899;28;20034;-68
2022/05/16 04:03:11;;;;;;;2.95;1.25;;;16.60;83.10;;;;;;4991675;28;20058;-69
2022/05/16 04:05:38;;;;;;;5.95;1.83;;;16.60;83.20;;;;;;4991285;28;20058;-68
2022/05/16 04:08:04;;;;;;;7.30;1.95;;;16.50;83.30;;;;;;4990833;28;20038;-69
2022/05/16 04:10:30;;;;;;;6.63;1.48;;;16.50;83.00;;;;;;4991393;28;20528;-69
2022/05/16 04:12:57;;;;;;;5.82;1.70;;;16.50;82.90;;;;;;4991721;28;20034;-68
2022/05/16 04:15:23;;;;;;;7.03;1.83;;;16.50;83.00;;;;;;4990912;28;20058;-69
2022/05/16 04:17:52;;;;;;;1.48;1.20;;;16.50;82.70;;;;;;4991619;28;20117;-68
2022/05/16 04:20:20;;;;;;;7.43;1.88;;;16.50;83.30;;;;;;4991465;28;20023;-68
2022/05/16 04:22:46;;;;;;;2.53;1.08;;;16.50;83.10;;;;;;4990626;28;20130;-69
2022/05/16 04:25:16;;;;;;;4.57;1.80;;;16.50;83.00;;;;;;4991422;28;20049;-68
2022/05/16 04:27:42;;;;;;;6.63;1.90;;;16.50;82.50;;;;;;4991999;28;20084;-68
2022/05/16 04:30:09;;;;;;;2.95;1.60;;;16.50;82.80;;;;;;4994761;28;20034;-68
2022/05/16 04:32:35;;;;;;;3.97;1.88;;;16.50;82.90;;;;;;4994659;28;20466;-69
2022/05/16 04:35:02;;;;;;;4.93;2.10;;;16.50;82.80;;;;;;4995331;28;20037;-68
2022/05/16 04:37:32;;;;;;;6.05;2.10;;;16.50;82.60;;;;;;4994863;28;20537;-69
2022/05/16 04:40:03;;;;;;;3.97;1.77;;;16.50;82.70;;;;;;4994764;28;20022;-68
2022/05/16 04:42:41;;;;;;;2.67;1.60;;;16.50;82.30;;;;;;4995127;28;20053;-69
2022/05/16 04:45:24;;;;;;;8.20;1.38;;;16.50;82.00;;;;;;4982072;28;20756;-68
2022/05/16 04:47:56;;;;;;;2.88;1.40;;;16.50;82.30;;;;;;4993673;28;20508;-71
2022/05/16 04:50:33;;;;;;;2.22;1.50;;;16.60;82.50;;;;;;4992786;28;20097;-68
2022/05/16 04:53:00;;;;;;;10.23;1.98;;;16.60;82.10;;;;;;4993392;28;20072;-69
2022/05/16 04:55:28;;;;;;;1.83;1.30;;;16.50;82.60;;;;;;4993809;28;20085;-71
2022/05/16 04:57:54;;;;;;;2.83;1.85;;;16.50;83.40;;;;;;4993440;28;20076;-70
2022/05/16 05:00:21;;;;;;;4.88;1.60;;;16.50;83.10;;;;;;4991682;28;20425;-70
2022/05/16 05:02:47;;;;;;;6.85;1.70;;;16.50;83.30;;;;;;4991402;28;20026;-73
2022/05/16 05:05:15;;;;;;;7.00;1.98;;;16.50;83.20;;;;;;4992182;28;20465;-73
2022/05/16 05:07:41;;;;;;;6.00;2.20;;;16.50;83.40;;;;;;4988685;28;20050;-72
2022/05/16 05:15:43;;;;;;;5.05;2.20;;;16.60;83.40;;;;;;4988426;28;20037;-71
2022/05/16 05:18:09;;;;;;;8.57;2.17;;;16.60;83.40;;;;;;4991198;28;20034;-71
2022/05/16 05:20:38;;;;;;;5.25;1.83;;;16.60;83.10;;;;;;4991772;28;20034;-71
2022/05/16 05:23:04;;;;;;;6.13;2.10;;;16.60;83.30;;;;;;4992483;28;20033;-72
2022/05/16 05:25:31;;;;;;;4.00;1.88;;;16.70;83.10;;;;;;4993500;28;20042;-70
2022/05/16 05:28:01;;;;;;;9.27;2.50;;;16.70;83.00;;;;;;4992277;28;20050;-70
2022/05/16 05:30:27;;;;;;;12.30;1.88;;;16.70;83.20;;;;;;4992434;28;20466;-75
2022/05/16 05:32:57;;;;;;;4.68;2.03;;;16.70;83.40;;;;;;4992300;28;20417;-72
2022/05/16 05:35:23;;;;;;;8.65;1.83;;;16.70;83.40;;;;;;4992836;28;20022;-71
2022/05/16 05:37:49;;;;;;;4.80;1.92;;;16.70;83.40;;;;;;4993464;28;20133;-76
2022/05/16 05:40:17;;;;;;;4.82;1.80;;;16.70;83.40;;;;;;4992753;28;20126;-74
2022/05/16 05:42:43;;;;;;;4.38;1.73;;;16.70;83.50;;;;;;4988420;28;20869;-73
2022/05/16 05:45:09;;;;;;;6.38;1.95;;;16.80;83.40;;;;;;4990643;28;20069;-69
2022/05/16 05:47:36;;;;;;;5.88;2.08;;;16.90;83.20;;;;;;4989634;28;20030;-73
2022/05/16 05:50:03;;;;;;;4.82;2.08;;;16.80;83.30;;;;;;4991340;28;20053;-70
2022/05/16 05:52:29;;;;;;;6.10;2.30;;;16.90;83.40;;;;;;4993161;28;20041;-69
2022/05/16 05:54:56;;;;;;;1.55;0.98;;;16.80;82.90;;;;;;4993534;28;20054;-69
2022/05/16 05:57:23;;;;;;;2.45;1.60;;;16.90;83.80;;;;;;4992190;28;20027;-69
2022/05/16 05:59:48;;;;;;;4.35;1.85;;;16.90;83.70;;;;;;4993392;28;20480;-69
2022/05/16 06:02:17;;;;;;;1.02;1.00;;;16.90;84.20;;;;;;4993402;28;20071;-69
2022/05/16 06:04:42;;;;;;;5.60;1.90;;;16.90;84.20;;;;;;4993762;28;20121;-69
2022/05/16 06:07:08;;;;;;;2.55;1.55;;;16.90;83.90;;;;;;4993061;28;20165;-69
2022/05/16 06:09:34;;;;;;;4.47;2.00;;;17.00;83.80;;;;;;4992805;28;20038;-69
2022/05/16 06:12:00;;;;;;;5.97;1.42;;;17.00;83.60;;;;;;4992977;28;20030;-69
2022/05/16 06:14:26;;;;;;;8.65;2.40;;;16.90;83.80;;;;;;4992486;28;20037;-69
2022/05/16 06:16:53;;;;;;;5.68;1.95;;;16.90;83.80;;;;;;4992926;28;20478;-69
2022/05/16 06:19:19;;;;;;;5.18;2.40;;;17.00;83.50;;;;;;4993710;28;20126;-69
2022/05/16 06:21:45;;;;;;;4.20;2.13;;;17.00;83.50;;;;;;4992308;28;20565;-69
2022/05/16 06:26:57;;;;;;;7.30;2.00;;;17.10;83.20;;;;;;4993251;28;20042;-69
2022/05/16 06:29:23;;;;;;;2.83;1.60;;;17.20;83.30;;;;;;4992469;28;20474;-69
2022/05/16 06:31:49;;;;;;;6.40;2.42;;;17.20;83.40;;;;;;4993469;28;20077;-69
2022/05/16 06:34:14;;;;;;;4.40;1.95;;;17.20;83.20;;;;;;4993084;28;20544;-69
2022/05/16 06:36:40;;;;;;;6.00;2.53;;;17.30;82.90;;;;;;4992889;28;20034;-69
2022/05/16 06:39:05;;;;;;;9.15;2.30;;;17.20;82.60;;;;;;4993042;28;20480;-69
2022/05/16 06:41:34;;;;;;;6.55;2.30;;;17.30;82.50;;;;;;4992871;28;20023;-69
2022/05/16 06:44:01;;;;;;;7.78;2.08;;;17.40;82.60;;;;;;4992325;28;20375;-69
2022/05/16 06:46:27;;;;;;;5.68;2.10;;;17.40;82.50;;;;;;4992872;28;20073;-69
2022/05/16 06:48:53;;;;;;;10.48;1.95;;;17.40;82.00;;;;;;4992759;28;20061;-69
2022/05/16 06:51:19;;;;;;;4.90;1.80;;;17.50;82.20;;;;;;4991258;28;20434;-69
2022/05/16 06:53:45;;;;;;;5.93;1.77;;;17.50;82.10;;;;;;4992507;28;20042;-69
2022/05/16 06:56:10;;;;;;;6.20;2.15;;;17.50;82.30;;;;;;4991746;28;20029;-69
2022/05/16 06:58:37;;;;;;;4.00;1.58;;;17.50;82.10;;;;;;4992313;28;20019;-69
2022/05/16 07:01:03;;;;;;;5.18;1.55;;;17.60;82.20;;;;;;4992889;28;20049;-69
2022/05/16 07:03:33;;;;;;;3.40;1.30;;;17.60;82.30;;;;;;4992091;28;20036;-69
2022/05/16 07:05:59;;;;;;;6.63;1.80;;;17.70;82.30;;;;;;4992638;28;20054;-69
2022/05/16 07:08:25;;;;;;;4.60;1.67;;;17.70;82.40;;;;;;4992570;28;20372;-69
2022/05/16 07:10:52;;;;;;;6.25;2.00;;;17.70;82.20;;;;;;4991846;28;20113;-67
2022/05/16 07:13:17;;;;;;;3.28;1.45;;;17.70;82.00;;;;;;4992372;28;20038;-70
2022/05/16 07:15:43;;;;;;;8.75;1.90;;;17.80;82.30;;;;;;4992680;28;20056;-68
2022/05/16 07:18:10;;;;;;;4.18;1.25;;;17.80;82.00;;;;;;4991621;28;20038;-69
2022/05/16 07:20:36;;;;;;;8.82;2.65;;;17.90;82.20;;;;;;4992520;28;20035;-71
2022/05/16 07:23:05;;;;;;;6.38;1.42;;;18.00;81.80;;;;;;4991181;28;20039;-71
2022/05/16 07:27:56;;;;;;;1.38;1.13;;;18.00;82.40;;;;;;4991181;28;20042;-71
2022/05/16 07:28:17;;;;;;;6.47;1.92;;;18.00;82.40;;;;;;4992143;28;20058;-71
2022/05/16 07:30:43;;;;;;;4.15;1.63;;;18.10;82.20;;;;;;4992323;28;20082;-71
2022/05/16 07:33:08;;;;;;;7.70;1.80;;;18.20;82.00;;;;;;4990829;28;20085;-71
2022/05/16 07:35:35;;;;;;;9.90;2.13;;;18.20;82.00;;;;;;4991958;28;20069;-72
2022/05/16 07:38:04;;;;;;;8.05;2.20;;;18.20;81.40;;;;;;4991647;28;20425;-71
2022/05/16 07:40:33;;;;;;;3.67;1.38;;;18.30;81.30;;;;;;4991378;28;20050;-72
2022/05/16 07:43:00;;;;;;;4.80;1.88;;;18.30;81.30;;;;;;4992287;28;20038;-72
2022/05/16 07:45:26;;;;;;;5.45;1.98;;;18.40;81.30;;;;;;4991460;28;20038;-71
2022/05/16 07:47:52;;;;;;;5.05;1.80;;;18.50;81.30;;;;;;4991619;28;20092;-71
2022/05/16 07:50:17;;;;;;;6.35;3.60;;;18.50;81.20;;;;;;4991632;28;20056;-71
2022/05/16 07:52:46;;;;;;;8.35;2.15;;;18.50;81.10;;;;;;4991099;28;20031;-71
2022/05/16 07:55:12;;;;;;;7.85;1.90;;;18.60;81.20;;;;;;4991937;28;20026;-71
2022/05/16 07:57:38;;;;;;;4.20;1.80;;;18.70;81.00;;;;;;4992091;28;20026;-71
2022/05/16 08:00:05;;;;;;;4.43;1.50;;;18.70;81.30;;;;;;4991438;28;20034;-72
2022/05/16 08:02:38;;;;;;;4.53;2.10;;;18.80;81.50;;;;;;4991651;28;20034;-71
2022/05/16 08:05:04;;;;;;;5.50;1.73;;;18.80;81.40;;;;;;4991519;28;20070;-71
2022/05/16 08:07:29;;;;;;;7.43;2.30;;;18.90;81.50;;;;;;4990771;28;20569;-72
2022/05/16 08:12:39;;;;;;;3.17;1.83;;;18.90;81.50;;;;;;4991653;28;20035;-71
2022/05/16 08:15:06;;;;;;;6.43;1.63;;;19.00;82.10;;;;;;4991019;28;20030;-71
2022/05/16 08:17:32;;;;;;;8.70;3.03;;;19.00;81.90;;;;;;4991560;28;20486;-71
2022/05/16 08:19:58;;;;;;;3.08;1.88;;;19.10;82.30;;;;;;4991099;28;20033;-72
2022/05/16 08:22:32;;;;;;;8.60;2.20;;;19.10;82.00;;;;;;4991373;28;20041;-72
2022/05/16 08:24:58;;;;;;;3.75;1.73;;;19.20;81.80;;;;;;4991414;28;20080;-71
2022/05/16 08:27:25;;;;;;;2.58;0.90;;;19.20;81.90;;;;;;4991647;28;20101;-71
2022/05/16 08:29:52;;;;;;;7.00;2.10;;;19.30;82.40;;;;;;4978496;28;20046;-71
2022/05/16 08:32:20;;;;;;;4.65;1.00;;;19.30;82.00;;;;;;4991205;28;20081;-71
2022/05/16 08:34:46;;;;;;;1.27;0.75;;;19.40;82.60;;;;;;4990881;28;20042;-72
2022/05/16 08:40:03;;;;;;;2.10;1.30;;;19.50;82.40;;;;;;4991477;28;20034;-71
2022/05/16 08:42:55;;;;;;;7.57;2.55;;;19.60;82.60;;;;;;4990571;28;20120;-72
2022/05/16 08:45:34;;;;;;;6.07;2.33;;;19.60;82.10;;;;;;4991364;28;20445;-71
2022/05/16 08:48:15;;;;;;;9.15;2.30;;;19.60;82.00;;;;;;4991144;28;20045;-71
2022/05/16 08:50:48;;;;;;;9.05;2.25;;;19.70;82.40;;;;;;4990776;28;20034;-71
2022/05/16 08:53:43;;;;;;;6.60;2.20;;;19.80;82.10;;;;;;4991317;28;20144;-71
2022/05/16 08:56:14;;;;;;;6.60;2.17;;;19.80;82.10;;;;;;4989040;28;20625;-72
2022/05/16 08:59:08;;;;;;;5.97;2.03;;;19.90;82.20;;;;;;4991120;28;20397;-72
2022/05/16 09:01:52;;;;;;;5.43;1.45;;;20.00;81.70;;;;;;4990807;28;20035;-72
2022/05/16 09:04:25;;;;;;;0.75;0.75;;;20.10;82.80;;;;;;4990970;28;20042;-72
2022/05/16 09:07:20;;;;;;;10.65;2.35;;;20.10;83.20;;;;;;4990760;28;20172;-72
2022/05/16 09:09:57;;;;;;;11.90;2.88;;;20.20;82.10;;;;;;4990599;28;20403;-71
2022/05/16 09:12:40;;;;;;;10.43;2.42;;;20.20;81.80;;;;;;4991390;28;20022;-72
2022/05/16 09:15:46;;;;;;;7.80;2.42;;;20.30;81.90;;;;;;4992142;28;20065;-72
2022/05/16 09:18:48;;;;;;;2.17;1.25;;;20.40;81.70;;;;;;4994006;28;20030;-72
2022/05/16 09:21:26;;;;;;;8.63;1.90;;;20.50;82.10;;;;;;4977093;28;20049;-72
2022/05/16 09:24:10;;;;;;;6.45;2.20;;;20.60;81.70;;;;;;4994566;28;20088;-71
2022/05/16 09:27:06;;;;;;;72.40;34.10;;;20.70;81.00;;;;;;4994125;28;20054;-71
2022/05/16 09:29:42;;;;;;;10.60;5.25;;;20.80;81.00;;;;;;4994269;28;20034;-72
2022/05/16 09:32:13;;;;;;;20.17;15.93;;;20.80;80.30;;;;;;4993246;28;20390;-71
2022/05/16 09:34:42;;;;;;;11.10;3.92;;;20.90;80.30;;;;;;4994371;28;20042;-71
2022/05/16 09:37:10;;;;;;;7.18;2.30;;;21.00;80.20;;;;;;4994061;28;20058;-72
2022/05/16 09:39:36;;;;;;;10.40;2.40;;;21.00;79.60;;;;;;4994039;28;20037;-72
2022/05/16 09:42:13;;;;;;;11.57;2.40;;;21.10;80.40;;;;;;4994108;28;20034;-72
2022/05/16 09:45:02;;;;;;;25.00;19.75;;;21.20;79.70;;;;;;4994093;28;20054;-72
2022/05/16 09:47:28;;;;;;;16.02;2.97;;;21.20;79.60;;;;;;4994311;28;20070;-72
2022/05/16 09:50:02;;;;;;;8.55;2.40;;;21.30;79.50;;;;;;4994199;28;20461;-71
2022/05/16 09:52:42;;;;;;;14.30;2.67;;;21.30;79.60;;;;;;4993284;28;20038;-72
2022/05/16 09:55:12;;;;;;;13.05;2.40;;;21.40;78.80;;;;;;4994028;28;20194;-71
2022/05/16 09:58:10;;;;;;;7.20;2.22;;;21.50;79.00;;;;;;4993690;28;20034;-72
2022/05/16 10:00:44;;;;;;;11.32;2.50;;;21.50;78.90;;;;;;4984883;28;20552;-72
2022/05/16 10:03:24;;;;;;;8.80;2.13;;;21.60;78.60;;;;;;4993316;28;20046;-71
2022/05/16 10:05:51;;;;;;;32.97;21.88;;;21.70;78.10;;;;;;4993340;28;20046;-72
2022/05/16 10:08:30;;;;;;;10.32;5.97;;;21.70;77.80;;;;;;4993231;28;20034;-72
2022/05/16 10:10:58;;;;;;;9.20;2.42;;;21.80;77.50;;;;;;4993661;28;20042;-72
2022/05/16 10:13:25;;;;;;;10.48;2.65;;;21.80;77.50;;;;;;4992994;28;20077;-72
2022/05/16 10:15:55;;;;;;;17.48;3.20;;;21.90;77.30;;;;;;4994265;28;20486;-72
2022/05/16 10:18:23;;;;;;;13.32;3.13;;;21.90;77.40;;;;;;4994614;28;20038;-72
2022/05/16 10:20:55;;;;;;;4.32;1.90;;;22.00;77.90;;;;;;4993257;28;20030;-72
2022/05/16 10:23:41;;;;;;;10.55;2.58;;;22.00;78.70;;;;;;4994446;28;20026;-71
2022/05/16 10:26:16;;;;;;;4.53;1.58;;;22.10;78.40;;;;;;4993549;28;20042;-72
2022/05/16 10:28:57;;;;;;;10.77;2.47;;;22.20;78.90;;;;;;4993574;28;20038;-72
2022/05/16 10:34:26;;;;;;;3.83;1.55;;;22.30;79.20;;;;;;4993308;28;20030;-72
2022/05/16 10:36:55;;;;;;;9.43;2.78;;;22.30;79.20;;;;;;4993946;28;20466;-72
2022/05/16 10:39:26;;;;;;;8.95;2.65;;;22.40;78.30;;;;;;4993754;28;20474;-71
2022/05/16 10:41:58;;;;;;;5.80;2.53;;;22.50;78.60;;;;;;4992929;28;20081;-72
2022/05/16 10:44:59;;;;;;;5.28;2.40;;;22.50;77.80;;;;;;4993981;28;20034;-72
2022/05/16 10:47:50;;;;;;;8.65;2.88;;;22.60;77.90;;;;;;4993295;28;20134;-72
2022/05/16 10:50:34;;;;;;;9.63;2.38;;;22.70;77.10;;;;;;4992983;28;20030;-72
2022/05/16 10:53:10;;;;;;;6.50;2.85;;;22.70;76.90;;;;;;4981224;28;20072;-72
2022/05/16 10:56:00;;;;;;;17.48;2.83;;;22.80;76.30;;;;;;4992880;28;20451;-72
2022/05/16 10:58:41;;;;;;;15.15;2.78;;;22.90;76.10;;;;;;4993945;28;20085;-71
2022/05/16 11:01:13;;;;;;;7.05;2.13;;;23.00;75.10;;;;;;4993126;28;20117;-71
2022/05/16 11:03:50;;;;;;;11.02;3.05;;;23.00;74.70;;;;;;4992549;28;20129;-71
2022/05/16 11:06:46;;;;;;;14.43;2.08;;;23.10;74.10;;;;;;4993115;28;20050;-72
2022/05/16 11:09:30;;;;;;;12.35;2.70;;;23.10;74.40;;;;;;4993508;28;20108;-72
2022/05/16 11:12:19;;;;;;;5.57;2.00;;;23.20;74.90;;;;;;4992816;28;20038;-72
2022/05/16 11:15:04;;;;;;;11.27;2.78;;;23.30;74.60;;;;;;4986728;28;20166;-71
2022/05/16 11:17:55;;;;;;;9.52;2.40;;;23.40;74.20;;;;;;4991934;28;20117;-72
2022/05/16 11:20:36;;;;;;;16.50;3.40;;;23.60;74.30;;;;;;4980860;28;20026;-69
2022/05/16 11:23:17;;;;;;;14.82;2.70;;;23.70;73.40;;;;;;4986101;28;20493;-70
2022/05/16 11:26:06;;;;;;;7.40;2.40;;;23.80;72.70;;;;;;4997848;28;20042;-70
2022/05/16 11:28:38;;;;;;;19.50;2.78;;;23.90;72.70;;;;;;4991270;28;20088;-70
2022/05/16 11:31:12;;;;;;;13.90;3.22;;;23.90;72.10;;;;;;4990173;28;20153;-68
2022/05/16 11:33:51;;;;;;;10.43;2.83;;;24.10;71.50;;;;;;4992295;28;20088;-70
2022/05/16 11:36:32;;;;;;;12.35;2.10;;;24.10;70.90;;;;;;4979826;28;20050;-72
2022/05/16 11:39:00;;;;;;;13.90;4.38;;;24.20;71.20;;;;;;4990707;28;20041;-76
2022/05/16 11:41:50;;;;;;;9.73;2.50;;;24.30;70.50;;;;;;4992143;28;20037;-77
2022/05/16 11:44:30;;;;;;;8.13;2.03;;;24.40;70.00;;;;;;4990971;28;20034;-73
2022/05/16 11:47:07;;;;;;;8.07;2.55;;;24.40;70.20;;;;;;4990279;28;20444;-73
2022/05/16 11:49:48;;;;;;;9.25;2.08;;;24.50;69.70;;;;;;4990897;28;20474;-73
2022/05/16 11:52:17;;;;;;;6.63;2.20;;;24.60;71.00;;;;;;4990955;28;20042;-74
2022/05/16 11:55:04;;;;;;;6.55;2.55;;;24.60;71.50;;;;;;4991851;28;20033;-74
2022/05/16 12:03:07;;;;;;;5.45;2.33;;;24.60;68.90;;;;;;4989962;28;20041;-75
2022/05/16 12:05:40;;;;;;;8.60;2.42;;;24.70;69.10;;;;;;4990017;28;20041;-73
2022/05/16 12:08:14;;;;;;;;;;;24.70;68.60;;;;;;4990775;28;20026;-76
2022/05/16 12:11:03;;;;;;;8.23;2.92;;;24.70;70.60;;;;;;4988396;28;20361;-75
2022/05/16 12:13:35;;;;;;;8.23;2.30;;;24.80;69.80;;;;;;4988313;28;20113;-70
2022/05/16 12:16:13;;;;;;;13.80;2.60;;;24.80;68.40;;;;;;4986712;28;20034;-70
2022/05/16 12:18:43;;;;;;;15.88;2.65;;;24.80;68.30;;;;;;4990888;28;20478;-70
2022/05/16 12:21:26;;;;;;;9.88;2.00;;;24.90;69.00;;;;;;4990835;28;20482;-71
2022/05/16 12:23:54;;;;;;;5.10;1.67;;;24.80;68.90;;;;;;4991345;28;20038;-71
2022/05/16 12:26:30;;;;;;;12.60;2.70;;;24.90;69.40;;;;;;4991218;28;20046;-71
2022/05/16 12:29:08;;;;;;;11.45;2.47;;;24.90;68.30;;;;;;4976970;28;20038;-70
2022/05/16 12:31:48;;;;;;;11.50;2.42;;;25.00;67.80;;;;;;4987865;28;20034;-71
2022/05/16 12:34:40;;;;;;;8.27;2.72;;;25.00;68.30;;;;;;4987639;28;20092;-70
2022/05/16 12:37:12;;;;;;;5.65;2.08;;;25.10;67.90;;;;;;4984900;28;20034;-71
2022/05/16 12:39:56;;;;;;;4.63;1.60;;;25.10;68.30;;;;;;4989300;28;20041;-70
2022/05/16 12:42:58;;;;;;;5.53;1.83;;;25.10;70.80;;;;;;4989105;28;20026;-70
2022/05/16 12:45:37;;;;;;;7.25;1.95;;;25.10;73.10;;;;;;4990771;28;20047;-70
2022/05/16 12:48:41;;;;;;;16.95;2.40;;;25.10;72.50;;;;;;4989911;28;20027;-70
2022/05/16 12:51:34;;;;;;;7.40;2.00;;;25.00;71.80;;;;;;4992718;28;20030;-70
2022/05/16 12:54:44;;;;;;;3.70;1.43;;;25.00;72.30;;;;;;4985162;28;20042;-70
2022/05/16 12:57:32;;;;;;;6.50;2.17;;;25.10;75.50;;;;;;4973498;28;20034;-70
2022/05/16 13:00:09;;;;;;;13.40;3.15;;;25.00;73.80;;;;;;4992544;28;20034;-70
2022/05/16 13:02:51;;;;;;;13.93;2.25;;;25.00;73.70;;;;;;4990903;28;20441;-71
2022/05/16 13:05:45;;;;;;;5.65;1.80;;;25.00;74.10;;;;;;4990381;28;20038;-70
2022/05/16 13:08:50;;;;;;;10.18;3.33;;;25.00;74.90;;;;;;4990775;28;20042;-71
2022/05/16 13:11:38;;;;;;;10.23;2.90;;;25.10;74.50;;;;;;4989996;28;20069;-68
2022/05/16 13:14:10;;;;;;;11.70;2.05;;;25.00;74.30;;;;;;4958141;28;20098;-69
2022/05/16 13:16:40;;;;;;;6.22;2.40;;;25.00;74.20;;;;;;4990049;28;20030;-69
2022/05/16 13:19:15;;;;;;;7.80;2.60;;;25.00;74.00;;;;;;4991440;28;20051;-68
2022/05/16 13:21:46;;;;;;;8.20;2.38;;;25.10;73.10;;;;;;4990888;28;20409;-69
2022/05/16 13:24:14;;;;;;;6.85;2.28;;;25.10;74.00;;;;;;4989647;28;20022;-73
2022/05/16 13:29:48;;;;;;;13.52;3.67;;;25.20;73.60;;;;;;4988275;28;20046;-69
2022/05/16 13:32:27;;;;;;;10.07;2.47;;;25.20;73.00;;;;;;4992438;28;20034;-68
2022/05/16 13:35:04;;;;;;;8.07;2.85;;;25.30;73.80;;;;;;4992553;28;20120;-69
2022/05/16 13:37:39;;;;;;;10.40;2.45;;;25.20;72.90;;;;;;4992678;28;20741;-69
2022/05/16 13:40:09;;;;;;;6.93;2.20;;;25.40;73.50;;;;;;4991470;28;20058;-69
2022/05/16 13:42:37;;;;;;;10.02;2.67;;;25.40;73.60;;;;;;4991623;28;20112;-70
2022/05/16 13:45:08;;;;;;;8.00;2.15;;;25.40;74.10;;;;;;4992591;28;20030;-70
2022/05/16 13:47:40;;;;;;;9.35;2.60;;;25.40;74.60;;;;;;4992930;28;20035;-70
2022/05/16 13:50:06;;;;;;;9.07;2.53;;;25.40;73.30;;;;;;4993284;28;20030;-70